Briefing drone pour Gevrey-chambertin

Rechercher une autre localisation

Conditions de vol :


Nous sommes le : Mardi 29 septembre 2020
Il est 13:03 UTC (15:03 LT)

Lever de soleil : 05:10 UTC (07:10 LT)
Coucher de soleil : 17:50 UTC (19:50 LT)

Météo

L'essentiel des conditions de vol

VIGILANCE MÉTÉO FRANCE - Côte-dOr (21)
Pas de vigilances particulieres
METAR de LFSD
LFSD 291230Z AUTO 17005KT 130V220 9999 FEW018 17/13 Q1020

Date d'émission: 29/09/2020
Heure d'émission: 12:30 UTC
Vent: 170° (variable du 130° au 220°) pour 5 KT (9 km/h)
Visibilité horizontale: > 10 km
Plafond :
- Peu de nuages à 1800ft (549m)
Température: 17 °C
Point de rosée: 13 °C
Humidité: 77%
Pression (QNH): 1020 hPa
TAF de LFSD
LFSD 010600Z 0100/0124 CNL

Conditions prévues :

Heure d'émission : Bulletin éffectué le 01 à 00:00 UTC
Prévision : Valide du 01 a 00:00 UTC au 01 a 23:59 UTC
Nuages : à 0ft (0 m)
WEBCAM POUR GEVREY-CHAMBERTIN

Réglementation

Voler en sécurité

CARTES AERONAUTIQUE 1/500.000
CARTES VAC (LFSD)
SUP AIP




Chargement des AIP...
NOTAM (GEVREY-CHAMBERTIN + Terrain à proximité / FIR )




Chargement des NOTAMS...
CONTACT PREFECTURE 21
Côte-dOr (21) : pref-drone@cote-dor.gouv.fr


Avertissement : Les données mises à disposition sont indicatives. Oxygène Drone ne pourra être tenu responsable de dégâts causés aux biens et aux personnes.